createdAt,value
2022-10-11T00:02:29.039Z,18.4
2022-10-11T00:08:03.972Z,18.4
2022-10-11T00:13:39.117Z,18.3
2022-10-11T00:19:13.890Z,18.3
2022-10-11T00:24:48.841Z,18.3
2022-10-11T00:30:23.582Z,18.3
2022-10-11T00:35:58.836Z,18.3
2022-10-11T00:41:34.763Z,18.3
2022-10-11T00:47:09.730Z,18.2
2022-10-11T00:52:44.654Z,18.2
2022-10-11T00:58:19.513Z,18.2
2022-10-11T01:03:54.548Z,18.2
2022-10-11T01:09:29.811Z,18.2
2022-10-11T01:15:04.687Z,18.1
2022-10-11T01:20:39.313Z,18.1
2022-10-11T01:26:14.050Z,18
2022-10-11T01:31:49.205Z,18
2022-10-11T01:37:24.152Z,18
2022-10-11T01:42:59.084Z,17.9
2022-10-11T01:48:34.137Z,17.9
2022-10-11T01:54:09.098Z,17.9
2022-10-11T01:59:44.103Z,17.9
2022-10-11T02:05:19.291Z,17.9
2022-10-11T02:10:54.001Z,17.9
2022-10-11T02:16:28.653Z,17.8
2022-10-11T02:22:03.851Z,17.8
2022-10-11T02:27:39.740Z,17.8
2022-10-11T02:33:14.457Z,17.8
2022-10-11T02:38:49.329Z,17.8
2022-10-11T02:44:24.209Z,17.8
2022-10-11T02:49:59.101Z,17.7
2022-10-11T02:55:33.873Z,17.7
2022-10-11T03:01:08.733Z,17.7
2022-10-11T03:06:44.304Z,17.7
2022-10-11T03:12:19.268Z,17.7
2022-10-11T03:17:54.495Z,17.7
2022-10-11T03:23:29.135Z,17.7
2022-10-11T03:29:04.313Z,17.6
2022-10-11T03:34:39.677Z,17.6
2022-10-11T03:40:14.458Z,17.6
2022-10-11T03:45:49.256Z,17.6
2022-10-11T03:51:23.889Z,17.6
2022-10-11T03:56:58.482Z,17.6
2022-10-11T04:02:37.041Z,17.6
2022-10-11T04:08:15.879Z,17.6
2022-10-11T04:13:51.042Z,17.6
2022-10-11T04:19:33.006Z,17.5
2022-10-11T04:25:07.784Z,17.4
2022-10-11T04:30:42.708Z,17.4
2022-10-11T04:36:17.669Z,17.4
2022-10-11T04:41:52.635Z,17.3
2022-10-11T04:47:28.749Z,17.3
2022-10-11T04:53:05.064Z,17.2
2022-10-11T04:58:40.514Z,17.2
2022-10-11T05:04:15.075Z,17.2
2022-10-11T05:09:50.035Z,17.1
2022-10-11T05:15:25.854Z,17.1
2022-10-11T05:21:00.514Z,17
2022-10-11T05:26:35.530Z,17
2022-10-11T05:32:10.648Z,17
2022-10-11T05:37:45.454Z,16.9
2022-10-11T05:43:20.228Z,16.9
2022-10-11T05:48:54.990Z,16.9
2022-10-11T05:54:30.086Z,16.9
2022-10-11T06:00:05.263Z,16.9
2022-10-11T06:05:40.395Z,16.8
2022-10-11T06:11:16.725Z,16.8
2022-10-11T06:16:51.513Z,16.9
2022-10-11T06:22:26.754Z,16.9
2022-10-11T06:28:01.593Z,17
2022-10-11T06:33:36.467Z,17
2022-10-11T06:39:11.267Z,16.9
2022-10-11T06:44:46.111Z,16.6
2022-10-11T06:50:35.066Z,16.6
2022-10-11T06:56:36.718Z,16.6
2022-10-11T07:02:12.313Z,16.7
2022-10-11T07:07:47.068Z,16.9
2022-10-11T07:13:21.922Z,17
2022-10-11T07:19:00.354Z,17.1
2022-10-11T07:24:36.313Z,16.9
2022-10-11T07:30:11.473Z,16.9
2022-10-11T07:35:48.499Z,17.1
2022-10-11T07:41:23.925Z,17.4
2022-10-11T07:46:58.785Z,17.5
2022-10-11T07:52:33.629Z,17.5
2022-10-11T07:58:08.699Z,17.8
2022-10-11T08:03:43.869Z,18
2022-10-11T08:09:18.942Z,18.1
2022-10-11T08:14:54.163Z,18.2
2022-10-11T08:20:29.219Z,18.3
2022-10-11T08:26:06.068Z,18.3
2022-10-11T08:31:44.634Z,18.2
2022-10-11T08:37:19.469Z,18.3
2022-10-11T08:42:54.350Z,18.5
2022-10-11T08:48:30.297Z,18.5
2022-10-11T08:54:07.703Z,18.1
2022-10-11T08:59:43.115Z,18
2022-10-11T09:05:18.347Z,18
2022-10-11T09:10:54.457Z,18
2022-10-11T09:16:29.306Z,18
2022-10-11T09:22:04.144Z,18
2022-10-11T09:28:01.063Z,18.1
2022-10-11T09:33:49.497Z,18.1
2022-10-11T09:39:24.542Z,18.1
2022-10-11T09:44:59.276Z,18.2
2022-10-11T09:50:34.269Z,18.2
2022-10-11T09:56:09.642Z,18.2
2022-10-11T10:01:45.260Z,18.2
2022-10-11T10:07:21.388Z,18.2
2022-10-11T10:12:56.415Z,18.3
2022-10-11T10:18:31.733Z,18.3
2022-10-11T10:24:06.859Z,18.3
2022-10-11T10:29:41.739Z,18.3
2022-10-11T10:35:16.863Z,18.3
2022-10-11T10:40:51.761Z,18.4
2022-10-11T10:46:26.920Z,18.4
2022-10-11T10:52:01.754Z,18.4
2022-10-11T10:57:37.625Z,18.4
2022-10-11T11:03:12.770Z,18.4
2022-10-11T11:08:47.792Z,18.5
2022-10-11T11:14:22.655Z,18.5
2022-10-11T11:19:57.576Z,18.6
2022-10-11T11:25:32.638Z,18.6
2022-10-11T11:31:07.893Z,18.7
2022-10-11T11:36:43.803Z,18.8
2022-10-11T11:42:18.760Z,18.9
2022-10-11T11:47:57.561Z,19
2022-10-11T11:53:33.594Z,19.1
2022-10-11T11:59:10.099Z,19.3
2022-10-11T12:04:53.218Z,19.4
2022-10-11T12:10:28.396Z,19.6
2022-10-11T12:16:04.573Z,19.8
2022-10-11T12:21:39.471Z,19.9
2022-10-11T12:27:31.052Z,20
2022-10-11T12:33:06.236Z,20.1
2022-10-11T12:38:41.114Z,20
2022-10-11T12:44:21.437Z,20
2022-10-11T12:49:59.134Z,20
2022-10-11T12:55:34.086Z,20.1
2022-10-11T13:01:37.506Z,20.2
2022-10-11T13:07:14.485Z,20.2
2022-10-11T13:12:49.237Z,20.2
2022-10-11T13:18:24.196Z,20.2
2022-10-11T13:24:08.501Z,20.2
2022-10-11T13:29:43.353Z,20.3
2022-10-11T13:35:27.186Z,20.2
2022-10-11T13:41:03.896Z,20.1
2022-10-11T13:46:41.068Z,20.1
2022-10-11T13:52:19.666Z,20
2022-10-11T13:58:00.515Z,20
2022-10-11T14:03:43.875Z,20.2
2022-10-11T14:09:19.253Z,20.3
2022-10-11T14:14:54.646Z,20.3
2022-10-11T14:20:33.163Z,20.3
2022-10-11T14:26:08.590Z,20.3
2022-10-11T14:31:43.707Z,20.3
2022-10-11T14:37:21.391Z,20.3
2022-10-11T14:42:56.347Z,20.1
2022-10-11T14:48:50.645Z,19.8
2022-10-11T14:54:31.799Z,19.7
2022-10-11T15:00:07.524Z,19.9
2022-10-11T15:05:42.375Z,20
2022-10-11T15:11:17.533Z,20.4
2022-10-11T15:16:52.724Z,20.8
2022-10-11T15:22:27.669Z,21.1
2022-10-11T15:28:08.662Z,21.6
2022-10-11T15:33:44.649Z,21.4
2022-10-11T15:39:19.682Z,20.9
2022-10-11T15:44:54.499Z,20.8
2022-10-11T15:50:29.365Z,20.7
2022-10-11T15:56:07.280Z,20.6
2022-10-11T16:01:45.079Z,20.3
2022-10-11T16:07:21.480Z,20
2022-10-11T16:12:56.860Z,19.8
2022-10-11T16:18:35.253Z,19.6
2022-10-11T16:24:12.426Z,19.5
2022-10-11T16:29:47.249Z,19.3
2022-10-11T16:35:22.107Z,19.3
2022-10-11T16:40:57.102Z,19.2
2022-10-11T16:46:31.914Z,19
2022-10-11T16:52:06.805Z,18.9
2022-10-11T16:57:41.570Z,18.7
2022-10-11T17:03:17.773Z,18.5
2022-10-11T17:08:52.807Z,18.2
2022-10-11T17:14:27.577Z,18.1
2022-10-11T17:20:02.914Z,18
2022-10-11T17:25:37.870Z,17.9
2022-10-11T17:31:12.999Z,17.7
2022-10-11T17:36:49.061Z,17.6
2022-10-11T17:42:23.868Z,17.5
2022-10-11T17:47:58.706Z,17.3
2022-10-11T17:53:33.249Z,17.2
2022-10-11T17:59:07.696Z,17.1
2022-10-11T18:04:42.602Z,17
2022-10-11T18:10:18.434Z,16.9
2022-10-11T18:15:56.536Z,16.8
2022-10-11T18:21:34.477Z,16.8
2022-10-11T18:27:10.114Z,16.8
2022-10-11T18:32:45.273Z,16.7
2022-10-11T18:38:20.159Z,16.6
2022-10-11T18:43:54.998Z,16.5
2022-10-11T18:49:30.148Z,16.6
2022-10-11T18:55:05.255Z,17
2022-10-11T19:00:41.242Z,17.2
2022-10-11T19:06:17.170Z,17.4
2022-10-11T19:11:52.227Z,17.4
2022-10-11T19:17:27.049Z,17.5
2022-10-11T19:23:02.158Z,17.5
2022-10-11T19:28:46.194Z,17.6
2022-10-11T19:34:22.291Z,17.6
2022-10-11T19:39:58.224Z,17.7
2022-10-11T19:45:33.360Z,17.7
2022-10-11T19:51:18.228Z,17.7
2022-10-11T19:56:56.014Z,17.7
2022-10-11T20:02:31.076Z,17.7
2022-10-11T20:08:09.890Z,17.7
2022-10-11T20:13:44.719Z,17.7
2022-10-11T20:19:19.593Z,17.7
2022-10-11T20:25:11.062Z,17.7
2022-10-11T20:30:53.092Z,17.7
2022-10-11T20:36:27.982Z,17.7
2022-10-11T20:42:02.795Z,17.6
2022-10-11T20:47:38.899Z,17.7
2022-10-11T20:53:16.390Z,17.7
2022-10-11T20:59:02.916Z,17.7
2022-10-11T21:04:37.721Z,17.7
2022-10-11T21:10:12.971Z,17.7
2022-10-11T21:15:48.772Z,17.8
2022-10-11T21:21:25.404Z,17.8
2022-10-11T21:27:10.704Z,17.8
2022-10-11T21:32:54.199Z,17.8
2022-10-11T21:38:58.261Z,17.8
2022-10-11T21:44:33.093Z,17.8
2022-10-11T21:50:16.997Z,17.8
2022-10-11T21:56:03.422Z,17.8
2022-10-11T22:01:38.469Z,17.8
2022-10-11T22:07:14.400Z,17.8
2022-10-11T22:13:16.182Z,17.8
2022-10-11T22:18:51.223Z,17.8
2022-10-11T22:24:47.422Z,17.8
2022-10-11T22:30:22.522Z,17.8
2022-10-11T22:35:57.527Z,17.8
2022-10-11T22:41:32.889Z,17.8
2022-10-11T22:47:17.992Z,17.8
2022-10-11T22:52:57.633Z,17.8
2022-10-11T22:58:32.527Z,17.8
2022-10-11T23:04:10.895Z,17.8
2022-10-11T23:09:46.052Z,17.8
2022-10-11T23:15:30.184Z,17.8
2022-10-11T23:21:06.660Z,17.8
2022-10-11T23:26:41.633Z,17.8
2022-10-11T23:32:25.998Z,17.8
2022-10-11T23:38:22.560Z,17.8
2022-10-11T23:43:57.544Z,17.9
2022-10-11T23:49:35.205Z,17.9
2022-10-11T23:55:33.642Z,17.9
